createdAt,value
2017-10-15T00:01:26.945Z,99.90
2017-10-15T00:03:53.367Z,99.90
2017-10-15T00:06:19.789Z,99.90
2017-10-15T00:08:47.042Z,99.90
2017-10-15T00:11:14.255Z,99.90
2017-10-15T00:13:40.755Z,99.90
2017-10-15T00:16:07.931Z,99.90
2017-10-15T00:18:34.551Z,99.90
2017-10-15T00:21:01.725Z,99.90
2017-10-15T00:23:28.163Z,99.90
2017-10-15T00:25:54.601Z,99.90
2017-10-15T00:28:21.007Z,99.90
2017-10-15T00:30:47.472Z,99.90
2017-10-15T00:33:13.939Z,99.90
2017-10-15T00:35:40.368Z,99.90
2017-10-15T00:38:06.859Z,99.90
2017-10-15T00:40:33.317Z,99.90
2017-10-15T00:43:00.496Z,99.90
2017-10-15T00:45:26.911Z,99.90
2017-10-15T00:47:54.071Z,99.90
2017-10-15T00:50:21.223Z,99.90
2017-10-15T00:52:48.428Z,99.90
2017-10-15T00:55:14.978Z,99.90
2017-10-15T00:57:41.396Z,99.90
2017-10-15T01:00:07.835Z,99.90
2017-10-15T01:02:34.370Z,99.90
2017-10-15T01:05:01.104Z,99.90
2017-10-15T01:07:27.527Z,99.90
2017-10-15T01:09:54.686Z,99.90
2017-10-15T01:12:21.884Z,99.90
2017-10-15T01:14:48.370Z,99.90
2017-10-15T01:17:15.599Z,99.90
2017-10-15T01:19:42.048Z,99.90
2017-10-15T01:22:08.536Z,99.90
2017-10-15T01:24:34.985Z,99.90
2017-10-15T01:27:01.434Z,99.90
2017-10-15T01:29:27.857Z,99.90
2017-10-15T01:31:54.302Z,99.90
2017-10-15T01:34:20.736Z,99.90
2017-10-15T01:36:47.191Z,99.90
2017-10-15T01:39:13.647Z,99.90
2017-10-15T01:41:40.055Z,99.90
2017-10-15T01:44:06.595Z,99.90
2017-10-15T01:46:33.751Z,99.90
2017-10-15T01:49:00.179Z,99.90
2017-10-15T01:51:27.363Z,99.90
2017-10-15T01:53:53.831Z,99.90
2017-10-15T01:56:20.255Z,99.90
2017-10-15T01:58:46.824Z,99.90
2017-10-15T02:01:13.236Z,99.90
2017-10-15T02:03:39.663Z,99.90
2017-10-15T02:06:06.132Z,99.90
2017-10-15T02:08:32.575Z,99.90
2017-10-15T02:10:59.007Z,99.90
2017-10-15T02:13:25.447Z,99.90
2017-10-15T02:15:51.903Z,99.90
2017-10-15T02:18:18.358Z,99.90
2017-10-15T02:20:45.543Z,99.90
2017-10-15T02:23:11.988Z,99.90
2017-10-15T02:25:38.427Z,99.90
2017-10-15T02:28:04.845Z,99.90
2017-10-15T02:30:32.038Z,99.90
2017-10-15T02:32:58.487Z,99.90
2017-10-15T02:35:24.903Z,99.90
2017-10-15T02:37:51.356Z,99.90
2017-10-15T02:40:17.800Z,99.90
2017-10-15T02:42:44.239Z,99.90
2017-10-15T02:45:10.683Z,99.90
2017-10-15T02:47:37.144Z,99.90
2017-10-15T02:50:03.587Z,99.90
2017-10-15T02:52:30.023Z,99.90
2017-10-15T02:54:56.471Z,99.90
2017-10-15T02:57:22.915Z,99.90
2017-10-15T02:59:49.386Z,99.90
2017-10-15T03:02:15.826Z,99.90
2017-10-15T03:04:42.258Z,99.90
2017-10-15T03:07:09.511Z,99.90
2017-10-15T03:09:36.707Z,99.90
2017-10-15T03:12:03.158Z,99.90
2017-10-15T03:14:29.626Z,99.90
2017-10-15T03:16:56.056Z,99.90
2017-10-15T03:19:22.543Z,99.90
2017-10-15T03:21:48.961Z,99.90
2017-10-15T03:24:16.147Z,99.90
2017-10-15T03:26:42.585Z,99.90
2017-10-15T03:29:09.043Z,99.90
2017-10-15T03:31:35.491Z,99.90
2017-10-15T03:34:01.916Z,99.90
2017-10-15T03:36:28.387Z,99.90
2017-10-15T03:38:54.823Z,99.90
2017-10-15T03:41:21.267Z,99.90
2017-10-15T03:43:47.765Z,99.90
2017-10-15T03:46:14.191Z,99.90
2017-10-15T03:48:40.816Z,99.90
2017-10-15T03:51:07.989Z,99.90
2017-10-15T03:53:35.185Z,99.90
2017-10-15T03:56:01.610Z,99.90
2017-10-15T03:58:28.069Z,99.90
2017-10-15T04:00:54.635Z,99.90
2017-10-15T04:03:21.067Z,99.90
2017-10-15T04:05:47.519Z,99.90
2017-10-15T04:08:13.935Z,99.90
2017-10-15T04:10:40.386Z,99.90
2017-10-15T04:13:06.880Z,99.90
2017-10-15T04:15:33.319Z,99.90
2017-10-15T04:17:59.751Z,99.90
2017-10-15T04:20:26.943Z,99.90
2017-10-15T04:22:53.366Z,99.90
2017-10-15T04:25:19.788Z,99.90
2017-10-15T04:27:46.256Z,99.90
2017-10-15T04:30:12.688Z,99.90
2017-10-15T04:32:39.132Z,99.90
2017-10-15T04:35:05.553Z,99.90
2017-10-15T04:37:32.003Z,99.90
2017-10-15T04:39:58.438Z,99.90
2017-10-15T04:42:24.848Z,99.90
2017-10-15T04:44:52.048Z,99.90
2017-10-15T04:47:18.635Z,99.90
2017-10-15T04:49:45.076Z,99.90
2017-10-15T04:52:11.492Z,99.90
2017-10-15T04:54:37.907Z,99.90
2017-10-15T04:57:04.335Z,99.90
2017-10-15T04:59:30.784Z,99.90
2017-10-15T05:01:57.215Z,99.90
2017-10-15T05:04:23.650Z,99.90
2017-10-15T05:06:50.119Z,99.90
2017-10-15T05:09:16.537Z,99.90
2017-10-15T05:11:43.043Z,99.90
2017-10-15T05:14:10.203Z,99.90
2017-10-15T05:16:37.392Z,99.90
2017-10-15T05:19:03.812Z,99.90
2017-10-15T05:21:30.229Z,99.90
2017-10-15T05:23:57.575Z,99.90
2017-10-15T05:26:23.993Z,99.90
2017-10-15T05:28:50.648Z,99.90
2017-10-15T05:31:17.072Z,99.90
2017-10-15T05:33:43.554Z,99.90
2017-10-15T05:36:10.807Z,99.90
2017-10-15T05:38:37.968Z,99.90
2017-10-15T05:41:05.147Z,99.90
2017-10-15T05:43:31.555Z,99.90
2017-10-15T05:45:58.005Z,99.90
2017-10-15T05:48:25.290Z,99.90
2017-10-15T05:50:51.722Z,99.90
2017-10-15T05:53:18.288Z,99.90
2017-10-15T05:55:44.794Z,99.90
2017-10-15T05:58:11.247Z,99.90
2017-10-15T06:00:37.671Z,99.90
2017-10-15T06:03:04.902Z,99.90
2017-10-15T06:05:31.426Z,99.90
2017-10-15T06:07:57.853Z,99.90
2017-10-15T06:10:24.412Z,99.90
2017-10-15T06:12:51.871Z,99.90
2017-10-15T06:15:18.320Z,99.90
2017-10-15T06:17:44.752Z,99.90
2017-10-15T06:20:11.219Z,99.90
2017-10-15T06:22:37.655Z,99.90
2017-10-15T06:25:05.595Z,99.90
2017-10-15T06:27:32.043Z,99.90
2017-10-15T06:29:58.572Z,99.90
2017-10-15T06:32:25.024Z,99.90
2017-10-15T06:34:51.486Z,99.90
2017-10-15T06:37:17.919Z,99.90
2017-10-15T06:39:44.378Z,99.90
2017-10-15T06:42:11.571Z,99.90
2017-10-15T06:44:38.004Z,99.90
2017-10-15T06:47:04.408Z,99.90
2017-10-15T06:49:31.035Z,99.90
2017-10-15T06:51:57.435Z,99.90
2017-10-15T06:54:23.891Z,99.90
2017-10-15T06:56:50.353Z,99.90
2017-10-15T06:59:16.808Z,99.90
2017-10-15T07:01:43.247Z,99.90
2017-10-15T07:04:09.711Z,99.90
2017-10-15T07:06:36.903Z,99.90
2017-10-15T07:09:03.327Z,99.90
2017-10-15T07:11:29.759Z,99.90
2017-10-15T07:13:56.195Z,99.90
2017-10-15T07:16:22.635Z,99.90
2017-10-15T07:18:49.068Z,99.90
2017-10-15T07:21:15.528Z,97.60
2017-10-15T07:23:41.976Z,97.60
2017-10-15T07:26:08.420Z,97.00
2017-10-15T07:28:34.947Z,97.00
2017-10-15T07:31:01.419Z,99.90
2017-10-15T07:33:27.876Z,99.90
2017-10-15T07:35:54.296Z,99.90
2017-10-15T07:38:20.775Z,99.90
2017-10-15T07:40:47.963Z,99.90
2017-10-15T07:43:14.424Z,99.90
2017-10-15T07:45:40.917Z,99.90
2017-10-15T07:48:08.099Z,99.90
2017-10-15T07:50:36.264Z,99.90
2017-10-15T07:53:02.901Z,99.90
2017-10-15T07:55:30.079Z,99.90
2017-10-15T07:57:56.543Z,99.90
2017-10-15T08:00:22.988Z,99.90
2017-10-15T08:02:49.468Z,99.90
2017-10-15T08:05:16.651Z,99.90
2017-10-15T08:07:43.120Z,99.90
2017-10-15T08:10:09.616Z,99.90
2017-10-15T08:12:36.955Z,99.90
2017-10-15T08:15:04.140Z,99.90
2017-10-15T08:17:30.621Z,99.90
2017-10-15T08:19:57.063Z,99.90
2017-10-15T08:22:23.515Z,99.90
2017-10-15T08:24:49.927Z,99.90
2017-10-15T08:27:16.373Z,99.90
2017-10-15T08:29:42.867Z,99.90
2017-10-15T08:32:10.072Z,99.90
2017-10-15T08:34:36.507Z,99.90
2017-10-15T08:37:03.125Z,99.90
2017-10-15T08:39:29.567Z,99.90
2017-10-15T08:41:56.022Z,99.90
2017-10-15T08:44:22.500Z,99.90
2017-10-15T08:46:48.943Z,99.90
2017-10-15T08:49:15.435Z,99.90
2017-10-15T08:51:41.886Z,99.90
2017-10-15T08:54:08.427Z,99.90
2017-10-15T08:56:35.804Z,99.90
2017-10-15T08:59:02.240Z,99.90
2017-10-15T09:01:28.696Z,99.90
2017-10-15T09:03:55.191Z,99.90
2017-10-15T09:06:21.668Z,99.90
2017-10-15T09:08:48.122Z,99.90
2017-10-15T09:11:14.588Z,99.90
2017-10-15T09:13:41.803Z,99.90
2017-10-15T09:16:08.330Z,99.90
2017-10-15T09:18:34.846Z,99.90
2017-10-15T09:21:01.311Z,99.90
2017-10-15T09:23:27.818Z,99.90
2017-10-15T09:25:54.324Z,99.90
2017-10-15T09:28:20.815Z,99.90
2017-10-15T09:30:47.255Z,99.90
2017-10-15T09:33:13.707Z,99.90
2017-10-15T09:35:40.286Z,99.90
2017-10-15T09:38:07.487Z,99.90
2017-10-15T09:40:33.930Z,99.90
2017-10-15T09:43:00.342Z,99.90
2017-10-15T09:45:27.530Z,99.90
2017-10-15T09:47:54.052Z,99.90
2017-10-15T09:50:20.511Z,99.70
2017-10-15T09:52:46.971Z,98.50
2017-10-15T09:55:13.460Z,97.90
2017-10-15T09:57:40.651Z,97.60
2017-10-15T10:00:07.210Z,97.60
2017-10-15T10:02:33.705Z,96.60
2017-10-15T10:05:00.969Z,96.30
2017-10-15T10:07:28.181Z,96.30
2017-10-15T10:09:54.847Z,95.90
2017-10-15T10:12:21.474Z,94.80
2017-10-15T10:14:47.974Z,94.90
2017-10-15T10:17:14.449Z,94.00
2017-10-15T10:19:40.905Z,94.60
2017-10-15T10:22:07.404Z,95.80
2017-10-15T10:24:33.843Z,95.10
2017-10-15T10:27:00.438Z,96.20
2017-10-15T10:29:26.982Z,95.00
2017-10-15T10:31:53.447Z,95.10
2017-10-15T10:34:19.872Z,94.40
2017-10-15T10:36:47.164Z,94.30
2017-10-15T10:39:13.611Z,94.30
2017-10-15T10:41:40.050Z,93.70
2017-10-15T10:44:06.520Z,94.30
2017-10-15T10:46:32.947Z,92.60
2017-10-15T10:48:59.375Z,91.80
2017-10-15T10:51:25.886Z,92.40
2017-10-15T10:53:52.326Z,91.80
2017-10-15T10:56:18.854Z,92.90
2017-10-15T10:58:46.037Z,92.50
2017-10-15T11:01:12.532Z,92.50
2017-10-15T11:03:39.064Z,90.40
2017-10-15T11:06:05.574Z,90.40
2017-10-15T11:08:32.183Z,86.50
2017-10-15T11:10:59.355Z,83.30
2017-10-15T11:13:25.840Z,83.50
2017-10-15T11:15:52.264Z,82.80
2017-10-15T11:18:18.756Z,82.70
2017-10-15T11:20:46.119Z,77.30
2017-10-15T11:23:13.376Z,77.10
2017-10-15T11:25:40.599Z,76.40
2017-10-15T11:28:07.040Z,76.30
2017-10-15T11:30:33.508Z,75.80
2017-10-15T11:33:00.675Z,75.60
2017-10-15T11:35:27.121Z,75.70
2017-10-15T11:37:53.659Z,73.50
2017-10-15T11:40:20.107Z,74.40
2017-10-15T11:42:46.576Z,72.80
2017-10-15T11:45:13.086Z,75.20
2017-10-15T11:47:39.494Z,74.50
2017-10-15T11:50:06.813Z,70.10
2017-10-15T11:52:33.543Z,70.00
2017-10-15T11:55:00.108Z,70.70
2017-10-15T11:57:27.943Z,70.30
2017-10-15T11:59:55.565Z,64.70
2017-10-15T12:02:22.870Z,67.40
2017-10-15T12:04:50.229Z,64.70
2017-10-15T12:07:17.410Z,66.60
2017-10-15T12:09:45.371Z,65.90
2017-10-15T12:12:12.851Z,65.80
2017-10-15T12:14:40.383Z,67.50
2017-10-15T12:17:07.341Z,65.10
2017-10-15T12:19:35.012Z,63.00
2017-10-15T12:22:02.570Z,64.80
2017-10-15T12:24:29.249Z,65.90
2017-10-15T12:26:55.767Z,69.90
2017-10-15T12:29:22.471Z,67.50
2017-10-15T12:31:49.691Z,66.00
2017-10-15T12:34:16.126Z,66.00
2017-10-15T12:36:42.632Z,64.20
2017-10-15T12:39:09.861Z,61.40
2017-10-15T12:41:36.293Z,61.40
2017-10-15T12:44:02.810Z,63.00
2017-10-15T12:46:29.266Z,63.10
2017-10-15T12:48:55.773Z,61.80
2017-10-15T12:51:22.228Z,61.70
2017-10-15T12:53:48.704Z,62.60
2017-10-15T12:56:15.207Z,61.80
2017-10-15T12:58:41.768Z,59.50
2017-10-15T13:01:08.242Z,58.60
2017-10-15T13:03:35.443Z,57.50
2017-10-15T13:06:01.902Z,57.40
2017-10-15T13:08:28.626Z,59.00
2017-10-15T13:10:55.107Z,59.00
2017-10-15T13:13:22.565Z,61.00
2017-10-15T13:15:49.101Z,61.00
2017-10-15T13:18:15.957Z,61.00
2017-10-15T13:20:43.168Z,57.60
2017-10-15T13:23:09.594Z,57.00
2017-10-15T13:25:36.097Z,56.10
2017-10-15T13:28:03.363Z,55.80
2017-10-15T13:30:29.868Z,55.80
2017-10-15T13:32:56.324Z,56.30
2017-10-15T13:35:22.824Z,54.40
2017-10-15T13:37:49.267Z,51.70
2017-10-15T13:40:15.790Z,51.50
2017-10-15T13:42:43.112Z,49.50
2017-10-15T13:45:09.575Z,49.40
2017-10-15T13:47:36.955Z,47.80
2017-10-15T13:50:03.411Z,47.80
2017-10-15T13:52:29.870Z,46.30
2017-10-15T13:55:11.232Z,45.30
2017-10-15T13:57:37.704Z,47.60
2017-10-15T14:02:48.352Z,45.60
2017-10-15T14:05:14.873Z,46.70
2017-10-15T14:07:41.396Z,47.90
2017-10-15T14:10:07.853Z,47.80
2017-10-15T14:12:35.146Z,46.20
2017-10-15T14:15:01.632Z,46.20
2017-10-15T14:17:28.061Z,47.10
2017-10-15T14:19:54.570Z,46.70
2017-10-15T14:22:21.091Z,47.20
2017-10-15T14:24:47.605Z,46.80
2017-10-15T14:27:14.856Z,46.20
2017-10-15T14:29:42.171Z,46.10
2017-10-15T14:32:08.699Z,45.60
2017-10-15T14:34:35.190Z,44.70
2017-10-15T14:37:01.672Z,43.30
2017-10-15T14:39:28.131Z,43.40
2017-10-15T14:41:54.595Z,43.70
2017-10-15T14:44:21.044Z,44.30
2017-10-15T14:46:47.493Z,44.20
2017-10-15T14:49:13.947Z,43.50
2017-10-15T14:51:56.007Z,44.40
2017-10-15T14:54:22.610Z,44.40
2017-10-15T14:56:49.109Z,45.70
2017-10-15T14:59:15.548Z,46.40
2017-10-15T15:01:43.512Z,47.70
2017-10-15T15:07:12.153Z,48.60
2017-10-15T15:09:38.615Z,50.20
2017-10-15T15:12:05.245Z,51.10
2017-10-15T15:14:46.587Z,51.40
2017-10-15T15:17:13.043Z,52.80
2017-10-15T15:19:40.263Z,53.40
2017-10-15T15:22:06.780Z,53.40
2017-10-15T15:24:33.261Z,54.30
2017-10-15T15:26:59.757Z,53.40
2017-10-15T15:29:26.245Z,53.20
2017-10-15T15:31:52.712Z,55.00
2017-10-15T15:34:19.900Z,55.70
2017-10-15T15:36:46.376Z,55.80
2017-10-15T15:39:12.937Z,58.10
2017-10-15T15:41:40.317Z,63.70
2017-10-15T15:44:06.790Z,63.50
2017-10-15T15:46:33.322Z,64.80
2017-10-15T15:48:59.744Z,66.60
2017-10-15T15:51:26.219Z,70.00
2017-10-15T15:53:52.693Z,72.70
2017-10-15T15:56:19.189Z,77.20
2017-10-15T15:58:45.730Z,83.10
2017-10-15T16:01:12.247Z,91.90
2017-10-15T16:03:38.702Z,98.20
2017-10-15T16:06:05.221Z,99.90
2017-10-15T16:08:31.734Z,99.90
2017-10-15T16:10:58.238Z,99.90
2017-10-15T16:13:24.776Z,99.90
2017-10-15T16:15:51.303Z,99.90
2017-10-15T16:18:17.801Z,99.90
2017-10-15T16:20:44.269Z,99.90
2017-10-15T16:23:11.644Z,99.90
2017-10-15T16:25:38.333Z,99.90
2017-10-15T16:28:04.811Z,99.90
2017-10-15T16:30:32.043Z,99.90
2017-10-15T16:32:58.562Z,99.90
2017-10-15T16:35:25.020Z,99.90
2017-10-15T16:37:51.532Z,99.90
2017-10-15T16:40:17.979Z,99.90
2017-10-15T16:42:44.519Z,99.90
2017-10-15T16:45:11.003Z,99.90
2017-10-15T16:47:38.260Z,99.90
2017-10-15T16:50:06.890Z,99.90
2017-10-15T16:52:34.903Z,99.90
2017-10-15T16:55:03.133Z,99.90
2017-10-15T16:57:30.490Z,99.90
2017-10-15T16:59:57.854Z,99.90
2017-10-15T17:02:25.009Z,99.90
2017-10-15T17:04:52.378Z,99.90
2017-10-15T17:07:20.768Z,99.90
2017-10-15T17:09:47.300Z,99.90
2017-10-15T17:12:13.801Z,99.90
2017-10-15T17:14:40.339Z,99.90
2017-10-15T17:17:06.859Z,99.90
2017-10-15T17:19:39.383Z,99.90
2017-10-15T17:22:06.678Z,99.90
2017-10-15T17:24:33.228Z,99.90
2017-10-15T17:26:59.675Z,99.90
2017-10-15T17:29:26.291Z,99.90
2017-10-15T17:31:52.837Z,99.90
2017-10-15T17:34:19.329Z,99.90
2017-10-15T17:36:45.860Z,99.90
2017-10-15T17:39:12.426Z,99.90
2017-10-15T17:41:39.663Z,99.90
2017-10-15T17:44:07.678Z,99.90
2017-10-15T17:46:34.234Z,99.90
2017-10-15T17:49:00.887Z,99.90
2017-10-15T17:51:27.645Z,99.90
2017-10-15T17:53:54.244Z,99.90
2017-10-15T17:56:21.557Z,99.90
2017-10-15T17:59:03.705Z,99.90
2017-10-15T18:01:30.971Z,99.90
2017-10-15T18:03:58.333Z,99.90
2017-10-15T18:06:26.275Z,99.90
2017-10-15T18:08:55.481Z,99.90
2017-10-15T18:11:23.691Z,99.90
2017-10-15T18:13:50.931Z,99.90
2017-10-15T18:16:20.326Z,99.90
2017-10-15T18:18:47.562Z,99.90
2017-10-15T18:21:14.103Z,99.90
2017-10-15T18:23:40.552Z,99.90
2017-10-15T18:26:07.834Z,99.90
2017-10-15T18:28:35.279Z,99.90
2017-10-15T18:31:01.758Z,99.90
2017-10-15T18:33:28.288Z,99.90
2017-10-15T18:35:55.186Z,99.90
2017-10-15T18:38:36.533Z,99.90
2017-10-15T18:44:06.589Z,99.90
2017-10-15T18:46:33.139Z,99.90
2017-10-15T18:48:59.660Z,99.90
2017-10-15T18:51:26.111Z,99.90
2017-10-15T18:53:52.616Z,99.90
2017-10-15T18:56:19.100Z,99.90
2017-10-15T18:59:00.511Z,99.90
2017-10-15T19:01:27.737Z,99.90
2017-10-15T19:03:54.251Z,99.90
2017-10-15T19:06:20.756Z,99.90
2017-10-15T19:08:47.980Z,99.90
2017-10-15T19:13:59.338Z,99.90
2017-10-15T19:16:25.854Z,99.90
2017-10-15T19:18:53.225Z,99.90
2017-10-15T19:21:20.501Z,99.90
2017-10-15T19:23:46.967Z,99.90
2017-10-15T19:26:13.484Z,99.90
2017-10-15T19:28:40.036Z,99.90
2017-10-15T19:31:06.665Z,99.90
2017-10-15T19:33:33.190Z,99.90
2017-10-15T19:36:00.423Z,99.90
2017-10-15T19:38:26.955Z,99.90
2017-10-15T19:40:53.456Z,99.90
2017-10-15T19:43:20.009Z,99.90
2017-10-15T19:45:46.549Z,99.90
2017-10-15T19:48:13.038Z,99.90
2017-10-15T19:50:39.605Z,99.90
2017-10-15T19:53:09.548Z,99.90
2017-10-15T19:55:36.022Z,99.90
2017-10-15T19:58:02.533Z,99.90
2017-10-15T20:00:29.095Z,99.90
2017-10-15T20:02:55.569Z,99.90
2017-10-15T20:05:22.856Z,99.90
2017-10-15T20:07:49.423Z,99.90
2017-10-15T20:10:15.952Z,99.90
2017-10-15T20:12:42.468Z,99.90
2017-10-15T20:15:24.549Z,99.90
2017-10-15T20:17:51.855Z,99.90
2017-10-15T20:20:18.430Z,99.90
2017-10-15T20:22:45.140Z,99.90
2017-10-15T20:25:11.650Z,99.90
2017-10-15T20:27:38.963Z,99.90
2017-10-15T20:30:05.553Z,99.90
2017-10-15T20:32:32.796Z,99.90
2017-10-15T20:34:59.260Z,99.90
2017-10-15T20:37:25.753Z,99.90
2017-10-15T20:39:53.740Z,99.90
2017-10-15T20:42:20.248Z,99.90
2017-10-15T20:44:46.744Z,99.90
2017-10-15T20:47:14.024Z,99.90
2017-10-15T20:49:40.544Z,99.90
2017-10-15T20:52:07.109Z,99.90
2017-10-15T20:54:33.565Z,99.90
2017-10-15T20:57:00.072Z,99.90
2017-10-15T20:59:27.384Z,99.90
2017-10-15T21:01:53.914Z,99.90
2017-10-15T21:04:20.397Z,99.90
2017-10-15T21:06:46.883Z,99.90
2017-10-15T21:09:13.447Z,99.90
2017-10-15T21:11:39.971Z,99.90
2017-10-15T21:14:06.418Z,99.90
2017-10-15T21:16:32.915Z,99.90
2017-10-15T21:19:00.135Z,99.90
2017-10-15T21:21:26.608Z,99.90
2017-10-15T21:23:53.816Z,99.90
2017-10-15T21:26:20.260Z,99.90
2017-10-15T21:28:46.726Z,99.90
2017-10-15T21:31:13.968Z,99.90
2017-10-15T21:33:40.426Z,99.90
2017-10-15T21:36:06.884Z,99.90
2017-10-15T21:38:34.072Z,99.90
2017-10-15T21:41:00.579Z,99.90
2017-10-15T21:43:27.898Z,99.90
2017-10-15T21:45:54.465Z,99.90
2017-10-15T21:48:20.951Z,99.90
2017-10-15T21:50:47.470Z,99.90
2017-10-15T21:53:14.679Z,99.90
2017-10-15T21:55:41.350Z,99.90
2017-10-15T21:58:07.845Z,99.90
2017-10-15T22:00:34.323Z,99.90
2017-10-15T22:03:00.881Z,99.90
2017-10-15T22:05:28.223Z,99.90
2017-10-15T22:07:54.718Z,99.90
2017-10-15T22:10:21.209Z,99.90
2017-10-15T22:12:47.696Z,99.90
2017-10-15T22:15:14.206Z,99.90
2017-10-15T22:17:41.505Z,99.90
2017-10-15T22:20:07.968Z,99.90
2017-10-15T22:22:34.460Z,99.90
2017-10-15T22:25:01.653Z,99.90
2017-10-15T22:27:28.168Z,99.90
2017-10-15T22:29:54.738Z,99.90
2017-10-15T22:32:21.236Z,99.90
2017-10-15T22:34:48.428Z,99.90
2017-10-15T22:37:14.958Z,99.90
2017-10-15T22:39:41.452Z,99.90
2017-10-15T22:42:07.872Z,99.90
2017-10-15T22:44:34.316Z,99.90
2017-10-15T22:47:00.814Z,99.90
2017-10-15T22:49:27.319Z,99.90
2017-10-15T22:51:53.760Z,99.90
2017-10-15T22:54:20.195Z,99.90
2017-10-15T22:56:46.828Z,99.90
2017-10-15T22:59:13.267Z,99.90
2017-10-15T23:01:39.714Z,99.90
2017-10-15T23:04:06.209Z,99.90
2017-10-15T23:06:32.647Z,99.90
2017-10-15T23:08:59.139Z,99.90
2017-10-15T23:11:25.643Z,99.90
2017-10-15T23:13:52.137Z,99.90
2017-10-15T23:16:19.296Z,99.90
2017-10-15T23:18:46.488Z,99.90
2017-10-15T23:21:12.940Z,99.90
2017-10-15T23:23:39.519Z,99.90
2017-10-15T23:26:06.824Z,99.90
2017-10-15T23:28:33.296Z,99.90
2017-10-15T23:30:59.795Z,99.90
2017-10-15T23:33:26.208Z,99.90
2017-10-15T23:35:52.680Z,99.90
2017-10-15T23:38:19.105Z,99.90
2017-10-15T23:40:46.308Z,99.90
2017-10-15T23:43:12.732Z,99.90
2017-10-15T23:45:39.193Z,99.90
2017-10-15T23:48:05.639Z,99.90
2017-10-15T23:50:32.076Z,99.90
2017-10-15T23:52:58.574Z,99.90
2017-10-15T23:55:25.098Z,99.90
2017-10-15T23:57:52.258Z,99.90
